Time;durP1;ratioP1;P1;durP2;ratioP2;P2;SDS_P1;SDS_P2;PMS_P1;PMS_P2;Temp;Humidity;BMP_temperature;BMP_pressure;BME280_temperature;BME280_humidity;BME280_pressure;Samples;Min_cycle;Max_cycle;Signal;HPM_P1;HPM_P2
2024/01/13 00:03:08;;;;;;;9.38;4.43;;;;;;;-0.37;74.28;100664.50;32134761;27;41290;-61
2024/01/13 00:18:08;;;;;;;10.15;6.10;;;;;;;-0.22;74.29;100633.09;32134153;27;20118;-61
2024/01/13 00:33:08;;;;;;;10.32;5.22;;;;;;;-0.14;74.27;100643.13;32133354;27;20102;-59
2024/01/13 00:48:09;;;;;;;10.70;5.80;;;;;;;-0.11;74.24;100630.72;32131227;27;42990;-66
2024/01/13 01:03:10;;;;;;;12.95;6.13;;;;;;;-0.08;74.02;100613.94;32130824;27;20050;-59
2024/01/13 01:18:10;;;;;;;10.55;4.80;;;;;;;-0.01;74.23;100610.88;32130240;27;20042;-61
2024/01/13 01:33:11;;;;;;;11.13;6.25;;;;;;;-0.01;74.08;100592.53;32130351;27;41637;-61
2024/01/13 01:48:11;;;;;;;13.07;5.72;;;;;;;-0.04;74.48;100577.03;32149243;27;20035;-62
2024/01/13 02:03:12;;;;;;;13.27;6.20;;;;;;;0.04;74.45;100560.00;32147164;27;38561;-62
2024/01/13 02:18:12;;;;;;;10.25;5.28;;;;;;;0.09;74.42;100532.56;32145997;27;20027;-62
2024/01/13 02:33:12;;;;;;;10.32;5.85;;;;;;;0.10;74.29;100530.81;32145004;27;41607;-63
2024/01/13 02:48:20;;;;;;;10.18;5.40;;;;;;;0.12;74.19;100515.81;32143695;27;41848;-59
2024/01/13 03:03:20;;;;;;;15.15;6.45;;;;;;;0.19;74.22;100514.50;32142434;27;31747;-63
2024/01/13 03:18:20;;;;;;;10.23;5.53;;;;;;;0.16;74.08;100512.06;32140223;27;20479;-63
2024/01/13 03:33:21;;;;;;;9.35;4.97;;;;;;;0.16;74.29;100502.47;32136982;27;41244;-60
2024/01/13 03:48:21;;;;;;;11.77;6.03;;;;;;;0.15;74.65;100492.91;32136175;27;42814;-61
2024/01/13 04:03:21;;;;;;;11.05;6.13;;;;;;;0.20;74.67;100471.66;32134999;27;20042;-62
2024/01/13 04:18:22;;;;;;;11.13;4.63;;;;;;;0.24;74.40;100452.16;32132196;27;41649;-63
2024/01/13 04:33:22;;;;;;;8.63;5.65;;;;;;;0.24;74.80;100446.09;32133672;27;43157;-63
2024/01/13 04:48:22;;;;;;;10.43;5.57;;;;;;;0.24;74.52;100459.19;32130200;27;41777;-62
2024/01/13 05:03:23;;;;;;;11.90;5.43;;;;;;;0.30;74.60;100440.44;32129088;27;42901;-63
2024/01/13 05:18:23;;;;;;;10.80;5.50;;;;;;;0.29;74.71;100436.19;32145676;27;20456;-61
2024/01/13 05:33:23;;;;;;;17.08;6.45;;;;;;;0.22;74.65;100409.53;32148602;27;36863;-63
2024/01/13 05:48:24;;;;;;;8.05;5.20;;;;;;;0.27;74.84;100394.31;32145150;27;20047;-60
2024/01/13 06:03:25;;;;;;;10.80;5.75;;;;;;;0.26;74.58;100404.91;32145254;27;25193;-63
2024/01/13 06:18:26;;;;;;;10.35;5.53;;;;;;;0.26;75.20;100395.28;32144235;27;20537;-62
2024/01/13 06:33:26;;;;;;;8.05;4.68;;;;;;;0.23;74.42;100398.06;32144151;27;20115;-63
2024/01/13 06:48:26;;;;;;;6.95;4.18;;;;;;;0.25;74.95;100382.28;32140501;27;20077;-63
2024/01/13 07:03:27;;;;;;;7.00;4.40;;;;;;;0.28;74.74;100396.00;32136898;27;43117;-60
2024/01/13 07:18:27;;;;;;;6.65;4.32;;;;;;;0.31;74.66;100401.03;32137401;27;20031;-63
2024/01/13 07:33:27;;;;;;;8.77;3.97;;;;;;;0.39;74.83;100381.38;32134148;27;20018;-61
2024/01/13 07:48:28;;;;;;;7.35;3.78;;;;;;;0.45;74.50;100365.25;32131179;27;41564;-61
2024/01/13 08:03:28;;;;;;;7.95;4.32;;;;;;;0.56;74.58;100352.28;32132725;27;41787;-62
2024/01/13 08:18:28;;;;;;;7.25;3.95;;;;;;;0.63;74.38;100348.31;32131983;27;20135;-61
2024/01/13 08:33:29;;;;;;;4.95;3.72;;;;;;;0.72;74.36;100348.63;32130453;27;27006;-61
2024/01/13 08:48:29;;;;;;;5.07;3.70;;;;;;;0.82;73.97;100318.22;32125556;27;42944;-62
2024/01/13 09:03:30;;;;;;;5.70;2.88;;;;;;;0.93;73.77;100302.59;32127146;27;20034;-64
2024/01/13 09:18:30;;;;;;;5.55;3.47;;;;;;;1.12;73.26;100296.06;31834554;27;97265;-62
2024/01/13 09:33:31;;;;;;;6.10;3.05;;;;;;;1.26;73.12;100290.69;31580337;27;126687;-59
2024/01/13 09:48:31;;;;;;;5.07;3.28;;;;;;;1.32;72.50;100271.88;31578942;27;125500;-59
2024/01/13 10:03:31;;;;;;;4.78;2.83;;;;;;;1.40;72.27;100242.47;31597286;27;96868;-62
2024/01/13 10:18:32;;;;;;;4.10;2.42;;;;;;;1.47;71.85;100214.81;31600672;27;125625;-61
2024/01/13 10:33:32;;;;;;;5.97;3.05;;;;;;;1.54;71.12;100196.84;31600141;27;97671;-61
2024/01/13 10:48:36;;;;;;;4.88;2.60;;;;;;;1.67;70.97;100154.78;31596732;27;97380;-64
2024/01/13 11:03:40;;;;;;;4.17;2.33;;;;;;;1.70;69.89;100149.28;31597534;27;121840;-61
2024/01/13 11:18:48;;;;;;;4.65;2.50;;;;;;;1.75;70.20;100141.06;31593857;27;96893;-63
2024/01/13 11:33:49;;;;;;;4.97;2.60;;;;;;;1.64;69.90;100092.81;31592573;27;96950;-60
2024/01/13 11:49:00;;;;;;;6.57;3.30;;;;;;;1.59;69.84;100100.19;31591592;27;97111;-62
2024/01/13 12:04:01;;;;;;;4.13;2.60;;;;;;;1.54;69.60;100039.31;31590209;27;96959;-62
2024/01/13 12:19:01;;;;;;;6.93;3.50;;;;;;;1.57;69.11;100010.19;31589766;27;98322;-64
2024/01/13 12:34:12;;;;;;;3.90;2.55;;;;;;;1.69;68.34;100008.41;31828915;27;125591;-63
2024/01/13 12:49:16;;;;;;;4.15;2.40;;;;;;;1.49;67.95;99988.91;32128132;27;20034;-63
2024/01/13 13:04:16;;;;;;;4.73;2.57;;;;;;;1.43;67.72;99958.72;32127402;27;20521;-62
2024/01/13 13:19:18;;;;;;;3.83;2.35;;;;;;;1.29;67.40;99957.16;32125533;27;20066;-61
2024/01/13 13:34:18;;;;;;;4.45;2.78;;;;;;;1.21;67.17;99933.28;32136450;27;20450;-62
2024/01/13 13:49:18;;;;;;;5.13;2.83;;;;;;;1.09;67.25;99921.09;32145870;27;42698;-64
2024/01/13 14:04:18;;;;;;;4.93;3.17;;;;;;;0.99;66.87;99898.16;32146597;27;41434;-62
2024/01/13 14:19:19;;;;;;;7.70;4.18;;;;;;;0.95;67.12;99888.88;32144030;27;43408;-63
2024/01/13 14:34:19;;;;;;;5.97;3.92;;;;;;;0.89;67.06;99883.25;32142568;27;22900;-62
2024/01/13 14:49:19;;;;;;;7.82;4.13;;;;;;;0.84;66.53;99867.84;32139761;27;20038;-62
2024/01/13 15:04:20;;;;;;;5.53;3.53;;;;;;;0.72;66.81;99856.50;32137141;27;35318;-62
2024/01/13 15:19:20;;;;;;;5.22;3.50;;;;;;;0.64;66.74;99830.03;32137170;27;20034;-62
2024/01/13 15:34:20;;;;;;;4.25;2.85;;;;;;;0.58;66.78;99814.78;32135819;27;41582;-63
2024/01/13 15:49:21;;;;;;;5.80;3.45;;;;;;;0.55;67.51;99794.88;32134890;27;24324;-59
2024/01/13 16:04:21;;;;;;;6.75;4.25;;;;;;;0.52;67.25;99768.03;32132239;27;24667;-63
2024/01/13 16:19:21;;;;;;;6.15;3.83;;;;;;;0.49;67.00;99762.09;32131844;27;29333;-63
2024/01/13 16:34:21;;;;;;;5.32;2.65;;;;;;;0.48;67.36;99736.00;32131023;27;20038;-60
2024/01/13 16:49:22;;;;;;;6.85;3.80;;;;;;;0.47;67.60;99708.94;32125427;27;41591;-60
2024/01/13 17:04:22;;;;;;;6.35;4.00;;;;;;;0.49;67.19;99682.59;32132291;27;42702;-62
2024/01/13 17:19:22;;;;;;;6.63;2.83;;;;;;;0.48;67.53;99657.38;32149220;27;43355;-58
2024/01/13 17:34:23;;;;;;;6.45;4.32;;;;;;;0.50;67.08;99650.22;32148440;27;20038;-63
2024/01/13 17:49:23;;;;;;;6.35;3.67;;;;;;;0.49;67.13;99611.84;32145985;27;42451;-61
2024/01/13 18:04:23;;;;;;;9.18;3.92;;;;;;;0.53;67.10;99591.47;32146273;27;20095;-62
2024/01/13 18:19:23;;;;;;;9.38;4.68;;;;;;;0.59;67.30;99576.09;32143695;27;41892;-60
2024/01/13 18:34:24;;;;;;;9.52;4.85;;;;;;;0.72;66.99;99547.13;32143636;27;20030;-62
2024/01/13 18:49:24;;;;;;;4.55;3.10;;;;;;;0.76;66.63;99518.88;32141203;27;20755;-64
2024/01/13 19:04:25;;;;;;;6.53;3.38;;;;;;;0.83;66.65;99499.06;32139100;27;41913;-63
2024/01/13 19:19:25;;;;;;;6.18;3.25;;;;;;;0.84;66.24;99485.00;32138493;27;20038;-60
2024/01/13 19:34:25;;;;;;;8.95;3.33;;;;;;;0.88;66.70;99478.53;32135812;27;42847;-63
2024/01/13 19:49:25;;;;;;;9.25;4.53;;;;;;;0.84;67.35;99469.25;32134138;27;41533;-61
2024/01/13 20:04:26;;;;;;;6.07;3.30;;;;;;;1.00;67.51;99455.72;32131837;27;42510;-61
2024/01/13 20:19:29;;;;;;;5.38;2.63;;;;;;;1.19;67.66;99415.69;32131068;27;40736;-60
2024/01/13 20:34:29;;;;;;;6.32;2.92;;;;;;;1.09;68.67;99385.91;32129202;27;20039;-61
2024/01/13 20:49:31;;;;;;;5.40;2.85;;;;;;;0.94;68.90;99388.03;32127032;27;41803;-62
2024/01/13 21:04:31;;;;;;;4.63;2.38;;;;;;;1.01;69.05;99361.19;32128389;27;20140;-63
2024/01/13 21:19:31;;;;;;;7.18;3.17;;;;;;;1.01;69.31;99336.72;32125809;27;41192;-61
2024/01/13 21:34:31;;;;;;;5.15;3.20;;;;;;;1.00;69.84;99333.28;32125176;27;36931;-62
2024/01/13 21:49:35;;;;;;;6.50;3.60;;;;;;;1.09;70.17;99317.72;32126608;27;41484;-61
2024/01/13 22:04:36;;;;;;;4.32;2.33;;;;;;;1.23;70.00;99311.28;32146414;27;20038;-61
2024/01/13 22:19:36;;;;;;;6.07;3.30;;;;;;;1.26;69.83;99317.09;32143953;27;20033;-62
2024/01/13 22:34:37;;;;;;;5.68;3.13;;;;;;;1.31;70.20;99293.94;32143345;27;20058;-62
2024/01/13 22:49:37;;;;;;;4.93;3.13;;;;;;;1.41;69.97;99288.72;32143699;27;20039;-62
2024/01/13 23:04:38;;;;;;;5.63;3.80;;;;;;;1.43;70.06;99280.69;32142779;27;20421;-62
2024/01/13 23:19:38;;;;;;;5.72;3.40;;;;;;;1.42;70.08;99237.03;32140642;27;20039;-62
2024/01/13 23:34:39;;;;;;;8.20;3.70;;;;;;;1.40;70.10;99226.69;32138374;27;41730;-64
2024/01/13 23:49:39;;;;;;;7.70;4.53;;;;;;;1.31;71.06;99198.63;32136702;27;42559;-62
